Arcadia, LA (71001)

11:55 PM CDT on July 11, 2014 (GMT -0500)
RAWS CANEY LA US (MCANL1) Elev 229 ft | 32.80 °N, 93.07 °W | Change Station

Current weather conditions updated 57 minutes ago

Clear
Clear
77 °F
Feels Like 79 °F
N
6
Wind Variable Wind from ESE
Gusts 8.0 mph

Tomorrow is forecast to be nearly the same temperature as today.

Today
High -- | Low -- °F
--% Chance of Precip.
Yesterday
High -- | Low -- °F
Precip. -- in
6:12 AM 8:21 PM
Full, 100% visible
Pressure 30.19 in
Visibility 10.0 miles
Clouds Clear
Heat Index 79 °F
Dew Point 70 °F
Humidity 78%
Rainfall 0.00 in
Snow Depth Not available.
UV 0 out of 12
Pollen 3.30 out of 12
Air Quality Not available.
Flu Activity Sporadic
METAR KRSN 120435Z AUTO 00000KT 10SM CLR 24/22 A3019 RMK AO2 T02390221

More Conditions Fewer Conditions

Pressure 30.19 in
Visibility 10.0 miles
Clouds Clear
Heat Index 79 °F
Dew Point 70 °F
Humidity 78%
Rainfall 0.00 in
Snow Depth Not available.
UV 0 out of 12
Pollen 3.30 out of 12
Air Quality Not available.
Flu Activity Sporadic
METAR KRSN 120435Z AUTO 00000KT 10SM CLR 24/22 A3019 RMK AO2 T02390221

More Conditions Fewer Conditions

10-Day Weather Forecast

Almanac

Astronomy

Jul. 11, 2014 Rise Set
Actual Time 6:12 AM CDT 8:21 PM CDT
Civil Twilight 5:44 AM CDT 8:49 PM CDT
Nautical Twilight 5:10 AM CDT 9:23 PM CDT
Astronomical Twilight 4:33 AM CDT 10:00 PM CDT
Moon 7:36 PM CDT (7/11) 5:22 AM CDT (7/11)
Length of Visible Light 15h 04m
Length of Day
14h 08m
Tomorrow will be 0m 52s shorter.
Full, 100% of the Moon is Illuminated
Jul 12
Full
Jul 12
Full
Jul 18
Last Quarter
Jul 26
New
Aug 3
First Quarter

Yesterday's Extremes

State Highs State Lows

Community

WunderPhotos

Upload Photos

1,732,704 photos uploaded!

Nearby

Snow Depth

Station Depth Elevation
No new snow has been reported.

Earthquake Activity

City Distance Mag. Time & Date
No recent earthquake activity has been reported nearby.
Minimum magnitude displayed is 2.5.

Coastal Water Temperatures

Place Temperature
No Stations Reporting

Nearby Weather Stations

Station Location Temp. Heat Index Dew Point Humidity Wind Precip. Elev Updated Type
RAWS CANEY LA, Homer, LA 77 °F 79 °F 70 °F 78% ESE  at  6 mph 0.00 in / hr 229 ft 10:58 PM CDT MADIS
Germantown, Minden, LA 78.4 °F 81 °F 71 °F 77% ESE  at  2.7 mph - / hr 384 ft 11:42 PM CDT Normal

Show More Stations Show Fewer Stations